createdAt,value
2022-10-07T03:03:19.039Z,102180.69
2022-10-07T03:05:49.193Z,102185.25
2022-10-07T03:08:15.782Z,102188.22
2022-10-07T03:10:42.845Z,102176.59
2022-10-07T03:13:09.584Z,102171.72
2022-10-07T03:15:42.114Z,102173.31
2022-10-07T03:18:26.266Z,102168.94
2022-10-07T03:20:55.453Z,102173.63
2022-10-07T03:23:25.690Z,102163.53
2022-10-07T03:25:53.965Z,102160.66
2022-10-07T03:28:22.543Z,102162.13
2022-10-07T03:30:50.142Z,102169.03
2022-10-07T03:33:18.253Z,102169.69
2022-10-07T03:35:45.031Z,102160.69
2022-10-07T03:38:12.252Z,102158.31
2022-10-07T03:40:39.332Z,102165.41
2022-10-07T03:43:07.552Z,102161.56
2022-10-07T03:45:37.310Z,102145.81
2022-10-07T03:48:05.027Z,102147.59
2022-10-07T03:50:31.484Z,102144.19
2022-10-07T03:52:57.941Z,102144.81
2022-10-07T03:55:24.411Z,102140.53
2022-10-07T03:57:53.362Z,102132.56
2022-10-07T04:00:25.577Z,102133.16
2022-10-07T04:02:52.791Z,102136.06
2022-10-07T04:05:20.889Z,102138.06
2022-10-07T04:07:49.243Z,102130.97
2022-10-07T04:10:17.829Z,102130.63
2022-10-07T04:12:45.015Z,102129.56
2022-10-07T04:15:14.868Z,102128.34
2022-10-07T04:17:41.769Z,102134.63
2022-10-07T04:20:09.497Z,102124.88
2022-10-07T04:22:36.636Z,102127.28
2022-10-07T04:25:22.667Z,102123.56
2022-10-07T04:27:56.755Z,102125.16
2022-10-07T04:30:26.000Z,102115.00
2022-10-07T04:32:52.636Z,102117.97
2022-10-07T04:35:23.561Z,102124.59
2022-10-07T04:37:51.392Z,102123.19
2022-10-07T04:40:19.364Z,102115.53
2022-10-07T04:43:05.791Z,102117.56
2022-10-07T04:45:34.064Z,102112.34
2022-10-07T04:48:01.719Z,102111.09
2022-10-07T04:50:28.728Z,102102.88
2022-10-07T04:52:55.177Z,102095.59
2022-10-07T04:55:21.702Z,102095.94
2022-10-07T04:57:49.579Z,102105.78
2022-10-07T05:00:16.145Z,102093.59
2022-10-07T05:02:44.670Z,102087.06
2022-10-07T05:05:11.209Z,102100.44
2022-10-07T05:07:37.683Z,102096.56
2022-10-07T05:10:04.738Z,102085.50
2022-10-07T05:12:31.202Z,102084.72
2022-10-07T05:14:58.179Z,102085.91
2022-10-07T05:17:25.674Z,102083.75
2022-10-07T05:19:52.114Z,102079.91
2022-10-07T05:22:18.617Z,102078.13
2022-10-07T05:24:45.026Z,102084.38
2022-10-07T05:27:13.886Z,102081.63
2022-10-07T05:29:40.400Z,102075.41
2022-10-07T05:32:06.924Z,102074.53
2022-10-07T05:34:33.392Z,102062.50
2022-10-07T05:36:59.777Z,102062.66
2022-10-07T05:39:26.261Z,102058.84
2022-10-07T05:41:52.783Z,102046.91
2022-10-07T05:44:22.215Z,102061.84
2022-10-07T05:46:49.221Z,102053.31
2022-10-07T05:49:15.742Z,102044.38
2022-10-07T05:51:42.498Z,102064.06
2022-10-07T05:54:08.894Z,102058.34
2022-10-07T05:56:37.112Z,102049.69
2022-10-07T05:59:04.497Z,102048.97
2022-10-07T06:01:31.027Z,102050.91
2022-10-07T06:03:57.885Z,102055.28
2022-10-07T06:06:25.500Z,102056.72
2022-10-07T06:08:53.324Z,102061.16
2022-10-07T06:11:38.940Z,102057.97
2022-10-07T06:14:06.244Z,102063.56
2022-10-07T06:16:32.775Z,102051.31
2022-10-07T06:18:59.978Z,102049.13
2022-10-07T06:21:27.862Z,102059.66
2022-10-07T06:23:56.488Z,102054.13
2022-10-07T06:26:23.583Z,102054.03
2022-10-07T06:28:50.223Z,102053.84
2022-10-07T06:31:22.323Z,102041.38
2022-10-07T06:33:50.108Z,102043.81
2022-10-07T06:36:17.424Z,102046.31
2022-10-07T06:38:48.665Z,102053.69
2022-10-07T06:41:18.742Z,102048.50
2022-10-07T06:43:45.668Z,102050.91
2022-10-07T06:46:16.044Z,102047.91
2022-10-07T06:48:44.632Z,102052.50
2022-10-07T06:51:14.650Z,102057.41
2022-10-07T06:53:41.902Z,102053.25
2022-10-07T06:56:10.059Z,102049.03
2022-10-07T06:58:36.848Z,102049.75
2022-10-07T07:01:04.013Z,102043.41
2022-10-07T07:03:30.561Z,102049.63
2022-10-07T07:05:57.388Z,102044.00
2022-10-07T07:08:31.688Z,102046.53
2022-10-07T07:11:29.410Z,102047.47
2022-10-07T07:13:56.584Z,102053.50
2022-10-07T07:16:24.309Z,102055.13
2022-10-07T07:18:53.183Z,102054.03
2022-10-07T07:21:19.874Z,102051.41
2022-10-07T07:23:46.518Z,102050.03
2022-10-07T07:26:13.506Z,102047.47
2022-10-07T07:28:40.148Z,102049.19
2022-10-07T07:31:11.182Z,102047.63
2022-10-07T07:33:38.317Z,102040.53
2022-10-07T07:36:16.461Z,102042.06
2022-10-07T07:38:43.835Z,102045.78
2022-10-07T07:41:10.966Z,102037.56
2022-10-07T07:43:37.501Z,102030.63
2022-10-07T07:46:04.911Z,102033.09
2022-10-07T07:48:31.516Z,102024.09
2022-10-07T07:50:58.069Z,102024.47
2022-10-07T07:53:24.512Z,102034.56
2022-10-07T07:55:55.958Z,102032.88
2022-10-07T07:58:24.396Z,102034.34
2022-10-07T08:01:01.819Z,102024.31
2022-10-07T08:03:28.421Z,102024.78
2022-10-07T08:05:55.041Z,102016.88
2022-10-07T08:08:22.264Z,102015.63
2022-10-07T08:10:51.876Z,102018.47
2022-10-07T08:13:18.695Z,102013.44
2022-10-07T08:15:45.352Z,102014.66
2022-10-07T08:18:11.874Z,102020.03
2022-10-07T08:20:38.443Z,102011.81
2022-10-07T08:23:06.118Z,102010.47
2022-10-07T08:25:32.765Z,102000.50
2022-10-07T08:27:59.871Z,102008.88
2022-10-07T08:30:26.550Z,101999.69
2022-10-07T08:32:54.197Z,101998.25
2022-10-07T08:35:22.215Z,101997.19
2022-10-07T08:37:48.947Z,101990.00
2022-10-07T08:40:17.492Z,101986.38
2022-10-07T08:42:44.174Z,101988.56
2022-10-07T08:45:22.407Z,101985.00
2022-10-07T08:47:51.403Z,101977.41
2022-10-07T08:50:24.542Z,101978.59
2022-10-07T08:52:56.050Z,101977.19
2022-10-07T08:56:00.889Z,101966.03
2022-10-07T08:58:46.762Z,101966.66
2022-10-07T09:01:39.633Z,101966.50
2022-10-07T09:04:44.737Z,101957.03
2022-10-07T09:07:20.054Z,101957.69
2022-10-07T09:09:54.905Z,101949.34
2022-10-07T09:12:29.245Z,101956.28
2022-10-07T09:14:58.009Z,101941.63
2022-10-07T09:17:36.407Z,101938.53
2022-10-07T09:20:16.422Z,101928.03
2022-10-07T09:22:50.199Z,101929.44
2022-10-07T09:25:22.298Z,101926.13
2022-10-07T09:27:51.379Z,101926.84
2022-10-07T09:30:20.012Z,101925.66
2022-10-07T09:32:49.345Z,101917.91
2022-10-07T09:35:22.075Z,101912.19
2022-10-07T09:38:03.228Z,101909.06
2022-10-07T09:40:35.468Z,101901.75
2022-10-07T09:43:13.796Z,101913.94
2022-10-07T09:45:46.929Z,101899.50
2022-10-07T09:48:23.916Z,101889.59
2022-10-07T09:50:50.390Z,101894.50
2022-10-07T09:53:29.104Z,101889.03
2022-10-07T09:55:55.605Z,101890.41
2022-10-07T09:58:30.486Z,101889.34
2022-10-07T10:01:01.547Z,101886.63
2022-10-07T10:03:37.242Z,101885.34
2022-10-07T10:06:08.845Z,101881.63
2022-10-07T10:08:42.590Z,101888.22
2022-10-07T10:11:17.922Z,101876.53
2022-10-07T10:13:44.450Z,101873.97
2022-10-07T10:16:25.982Z,101874.56
2022-10-07T10:19:02.379Z,101866.13
2022-10-07T10:21:36.584Z,101854.91
2022-10-07T10:24:06.400Z,101864.09
2022-10-07T10:26:42.051Z,101852.69
2022-10-07T10:29:40.976Z,101844.59
2022-10-07T10:32:20.954Z,101844.78
2022-10-07T10:35:02.472Z,101843.75
2022-10-07T10:37:40.800Z,101841.38
2022-10-07T10:40:19.307Z,101837.13
2022-10-07T10:43:04.104Z,101829.03
2022-10-07T10:45:39.775Z,101818.16
2022-10-07T10:48:31.551Z,101813.53
2022-10-07T10:51:05.944Z,101806.94
2022-10-07T10:53:40.393Z,101809.13
2022-10-07T10:56:48.025Z,101794.53
2022-10-07T10:59:33.897Z,101789.72
2022-10-07T11:02:38.805Z,101777.13
2022-10-07T11:05:36.822Z,101772.88
2022-10-07T11:08:15.399Z,101762.41
2022-10-07T11:10:50.753Z,101776.66
2022-10-07T11:13:33.888Z,101763.22
2022-10-07T11:16:20.677Z,101756.91
2022-10-07T11:18:55.580Z,101746.59
2022-10-07T11:21:39.869Z,101745.69
2022-10-07T11:24:11.364Z,101741.31
2022-10-07T11:26:41.485Z,101729.50
2022-10-07T11:29:32.579Z,101721.09
2022-10-07T11:32:12.451Z,101723.47
2022-10-07T11:34:56.673Z,101720.06
2022-10-07T11:37:49.307Z,101716.91
2022-10-07T11:40:16.545Z,101711.78
2022-10-07T11:42:49.808Z,101706.94
2022-10-07T11:45:22.272Z,101698.94
2022-10-07T11:48:04.494Z,101701.31
2022-10-07T11:50:36.817Z,101688.91
2022-10-07T11:53:09.698Z,101687.66
2022-10-07T11:55:45.462Z,101677.72
2022-10-07T11:58:27.076Z,101679.69
2022-10-07T12:01:25.391Z,101677.56
2022-10-07T12:04:16.509Z,101666.88
2022-10-07T12:07:20.393Z,101652.88
2022-10-07T12:10:07.441Z,101654.59
2022-10-07T12:12:43.898Z,101653.50
2022-10-07T12:15:42.367Z,101648.44
2022-10-07T12:18:10.441Z,101656.66
2022-10-07T12:20:44.889Z,101637.97
2022-10-07T12:23:17.283Z,101634.69
2022-10-07T12:25:48.334Z,101631.84
2022-10-07T12:28:41.770Z,101630.56
2022-10-07T12:31:23.469Z,101629.78
2022-10-07T12:33:55.984Z,101620.16
2022-10-07T12:36:29.268Z,101615.41
2022-10-07T12:38:57.614Z,101607.53
2022-10-07T12:41:25.386Z,101609.25
2022-10-07T12:44:30.324Z,101604.50
2022-10-07T12:47:02.422Z,101595.59
2022-10-07T12:49:39.701Z,101602.69
2022-10-07T12:52:15.053Z,101604.19
2022-10-07T12:54:48.871Z,101586.09
2022-10-07T12:57:21.534Z,101597.38
2022-10-07T13:00:14.011Z,101583.97
2022-10-07T13:02:43.722Z,101569.53
2022-10-07T13:05:29.253Z,101570.84
2022-10-07T13:08:15.247Z,101568.69
2022-10-07T13:11:08.830Z,101558.63
2022-10-07T13:13:52.906Z,101555.91
2022-10-07T13:16:31.890Z,101562.81
2022-10-07T13:19:14.181Z,101560.19
2022-10-07T13:21:49.314Z,101555.56
2022-10-07T13:24:22.337Z,101547.75
2022-10-07T13:26:49.182Z,101556.03
2022-10-07T13:29:28.355Z,101547.53
2022-10-07T13:32:13.908Z,101551.88
2022-10-07T13:34:41.523Z,101550.53
2022-10-07T13:37:34.196Z,101548.56
2022-10-07T13:40:20.794Z,101544.13
2022-10-07T13:42:55.422Z,101544.94
2022-10-07T13:45:22.606Z,101548.44
2022-10-07T13:47:49.962Z,101528.53
2022-10-07T13:50:22.419Z,101529.69
2022-10-07T13:52:50.460Z,101525.84
2022-10-07T13:55:30.483Z,101525.72
2022-10-07T13:58:00.713Z,101517.47
2022-10-07T14:00:32.976Z,101516.06
2022-10-07T14:03:01.686Z,101509.00
2022-10-07T14:05:31.601Z,101506.91
2022-10-07T14:08:00.688Z,101506.91
2022-10-07T14:10:29.601Z,101497.97
2022-10-07T14:13:09.691Z,101493.78
2022-10-07T14:15:37.002Z,101494.91
2022-10-07T14:18:11.169Z,101490.56
2022-10-07T14:20:45.947Z,101475.59
2022-10-07T14:23:33.790Z,101477.28
2022-10-07T14:26:11.644Z,101476.59
2022-10-07T14:28:39.884Z,101464.25
2022-10-07T14:31:25.147Z,101470.81
2022-10-07T14:34:34.580Z,101457.56
2022-10-07T14:37:17.394Z,101461.59
2022-10-07T14:39:48.926Z,101451.72
2022-10-07T14:42:18.369Z,101446.22
2022-10-07T14:44:45.726Z,101446.31
2022-10-07T14:47:15.371Z,101444.44
2022-10-07T14:49:44.675Z,101443.09
2022-10-07T14:52:18.125Z,101440.91
2022-10-07T14:54:44.769Z,101433.50
2022-10-07T14:57:11.187Z,101436.69
2022-10-07T14:59:37.878Z,101430.50
2022-10-07T15:02:04.365Z,101426.00
2022-10-07T15:04:30.942Z,101425.16
2022-10-07T15:06:58.038Z,101421.19
2022-10-07T15:09:24.652Z,101418.66
2022-10-07T15:11:51.323Z,101416.53
2022-10-07T15:14:17.857Z,101409.09
2022-10-07T15:16:44.652Z,101406.19
2022-10-07T15:19:11.187Z,101411.03
2022-10-07T15:21:37.637Z,101407.31
2022-10-07T15:24:04.166Z,101408.00
2022-10-07T15:26:31.128Z,101398.78
2022-10-07T15:28:59.246Z,101399.94
2022-10-07T15:31:28.078Z,101400.50
2022-10-07T15:33:57.811Z,101396.94
2022-10-07T15:36:29.021Z,101400.72
2022-10-07T15:38:58.789Z,101388.53
2022-10-07T15:41:40.038Z,101396.25
2022-10-07T15:44:12.933Z,101386.75
2022-10-07T15:46:39.400Z,101387.53
2022-10-07T15:49:05.983Z,101388.16
2022-10-07T15:51:32.895Z,101386.69
2022-10-07T15:53:59.667Z,101381.75
2022-10-07T15:56:26.109Z,101384.47
2022-10-07T15:58:53.320Z,101381.91
2022-10-07T16:01:20.769Z,101376.16
2022-10-07T16:03:49.002Z,101371.84
2022-10-07T16:06:21.177Z,101373.25
2022-10-07T16:08:49.487Z,101375.44
2022-10-07T16:11:16.169Z,101370.66
2022-10-07T16:13:44.989Z,101376.09
2022-10-07T16:16:14.765Z,101375.13
2022-10-07T16:18:43.906Z,101378.63
2022-10-07T16:21:15.644Z,101377.75
2022-10-07T16:23:47.418Z,101376.06
2022-10-07T16:26:19.552Z,101374.13
2022-10-07T16:29:06.472Z,101370.72
2022-10-07T16:31:34.925Z,101360.78
2022-10-07T16:34:03.300Z,101366.53
2022-10-07T16:36:30.318Z,101356.56
2022-10-07T16:38:59.777Z,101357.59
2022-10-07T16:41:26.272Z,101363.84
2022-10-07T16:43:52.707Z,101363.88
2022-10-07T16:46:20.792Z,101363.69
2022-10-07T16:48:49.056Z,101366.03
2022-10-07T16:51:18.578Z,101360.81
2022-10-07T16:53:46.998Z,101353.41
2022-10-07T16:56:13.586Z,101357.13
2022-10-07T16:58:40.381Z,101361.19
2022-10-07T17:01:12.772Z,101364.56
2022-10-07T17:03:41.197Z,101361.00
2022-10-07T17:06:14.926Z,101358.63
2022-10-07T17:08:47.487Z,101354.63
2022-10-07T17:11:29.019Z,101356.81
2022-10-07T17:13:58.182Z,101355.47
2022-10-07T17:16:26.099Z,101357.28
2022-10-07T17:18:53.387Z,101351.41
2022-10-07T17:21:20.405Z,101351.06
2022-10-07T17:23:47.746Z,101360.34
2022-10-07T17:26:15.435Z,101353.59
2022-10-07T17:28:42.742Z,101356.44
2022-10-07T17:31:12.052Z,101356.63
2022-10-07T17:33:45.270Z,101358.28
2022-10-07T17:36:12.671Z,101351.56
2022-10-07T17:38:43.802Z,101346.91
2022-10-07T17:41:16.654Z,101344.69
2022-10-07T17:43:43.428Z,101338.25
2022-10-07T17:46:12.783Z,101342.19
2022-10-07T17:48:54.522Z,101339.94
2022-10-07T17:51:24.130Z,101336.91
2022-10-07T17:53:51.108Z,101327.41
2022-10-07T17:56:17.605Z,101331.84
2022-10-07T17:58:45.762Z,101329.28
2022-10-07T18:01:19.446Z,101331.97
2022-10-07T18:03:51.204Z,101329.66
2022-10-07T18:06:18.120Z,101327.38
2022-10-07T18:08:44.743Z,101323.16
2022-10-07T18:11:11.280Z,101321.78
2022-10-07T18:13:56.242Z,101320.16
2022-10-07T18:16:23.178Z,101322.25
2022-10-07T18:18:57.138Z,101315.03
2022-10-07T18:21:24.484Z,101316.53
2022-10-07T18:23:52.553Z,101308.09
2022-10-07T18:26:19.213Z,101312.50
2022-10-07T18:28:49.449Z,101302.78
2022-10-07T18:31:17.549Z,101308.50
2022-10-07T18:33:45.991Z,101298.38
2022-10-07T18:36:15.803Z,101295.81
2022-10-07T18:38:44.364Z,101287.78
2022-10-07T18:41:16.098Z,101284.66
2022-10-07T18:43:43.465Z,101294.47
2022-10-07T18:46:12.734Z,101280.84
2022-10-07T18:48:50.623Z,101274.72
2022-10-07T18:51:17.508Z,101277.53
2022-10-07T18:53:47.137Z,101273.97
2022-10-07T18:56:14.958Z,101271.75
2022-10-07T18:58:44.492Z,101270.13
2022-10-07T19:01:17.125Z,101267.03
2022-10-07T19:03:44.530Z,101266.31
2022-10-07T19:06:17.148Z,101267.13
2022-10-07T19:08:43.594Z,101268.41
2022-10-07T19:11:16.852Z,101267.97
2022-10-07T19:13:48.144Z,101267.28
2022-10-07T19:16:29.184Z,101271.59
2022-10-07T19:18:59.215Z,101251.66
2022-10-07T19:21:26.043Z,101256.28
2022-10-07T19:24:01.630Z,101251.56
2022-10-07T19:26:42.761Z,101250.88
2022-10-07T19:29:10.721Z,101252.44
2022-10-07T19:31:43.773Z,101245.66
2022-10-07T19:34:13.352Z,101246.53
2022-10-07T19:36:42.326Z,101246.66
2022-10-07T19:39:10.406Z,101247.50
2022-10-07T19:41:37.422Z,101232.53
2022-10-07T19:44:05.022Z,101241.53
2022-10-07T19:46:33.518Z,101236.22
2022-10-07T19:49:02.020Z,101248.03
2022-10-07T19:51:30.524Z,101240.91
2022-10-07T19:53:58.076Z,101243.19
2022-10-07T19:56:28.145Z,101242.53
2022-10-07T19:58:56.969Z,101244.16
2022-10-07T20:01:26.283Z,101237.94
2022-10-07T20:03:57.966Z,101239.13
2022-10-07T20:06:25.192Z,101242.22
2022-10-07T20:08:52.352Z,101238.47
2022-10-07T20:11:19.080Z,101234.59
2022-10-07T20:13:45.718Z,101224.88
2022-10-07T20:16:18.973Z,101222.13
2022-10-07T20:18:48.103Z,101226.25
2022-10-07T20:21:24.368Z,101216.09
2022-10-07T20:23:53.798Z,101216.69
2022-10-07T20:26:23.687Z,101218.13
2022-10-07T20:28:52.832Z,101212.25
2022-10-07T20:31:21.729Z,101216.53
2022-10-07T20:33:50.946Z,101213.41
2022-10-07T20:36:23.289Z,101208.78
2022-10-07T20:39:23.506Z,101204.50
2022-10-07T20:42:09.940Z,101198.84
2022-10-07T20:44:36.680Z,101190.31
2022-10-07T20:47:06.227Z,101195.41
2022-10-07T20:49:33.634Z,101193.41
2022-10-07T20:52:02.208Z,101192.16
2022-10-07T20:54:30.164Z,101187.84
2022-10-07T20:56:57.983Z,101194.53
2022-10-07T20:59:28.835Z,101197.22
2022-10-07T21:01:56.174Z,101183.41
2022-10-07T21:04:25.129Z,101188.53
2022-10-07T21:06:52.234Z,101177.66
2022-10-07T21:09:20.018Z,101176.09
2022-10-07T21:11:47.261Z,101181.19
2022-10-07T21:14:14.479Z,101183.78
2022-10-07T21:16:41.374Z,101177.81
2022-10-07T21:19:08.073Z,101176.56
2022-10-07T21:21:34.886Z,101177.69
2022-10-07T21:24:01.376Z,101178.91
2022-10-07T21:26:27.826Z,101182.75
2022-10-07T21:28:54.354Z,101172.41
2022-10-07T21:31:22.030Z,101171.22
2022-10-07T21:33:50.460Z,101158.44
2022-10-07T21:36:21.610Z,101161.97
2022-10-07T21:38:54.289Z,101173.06
2022-10-07T21:41:24.721Z,101162.22
2022-10-07T21:43:53.495Z,101151.16
2022-10-07T21:46:20.917Z,101151.50
2022-10-07T21:48:47.742Z,101156.03
2022-10-07T21:51:14.816Z,101141.31
2022-10-07T21:53:41.432Z,101144.47
2022-10-07T21:56:11.477Z,101136.06
2022-10-07T21:58:38.102Z,101139.94
